Time;durP1;ratioP1;P1;durP2;ratioP2;P2;SDS_P1;SDS_P2;PMS_P1;PMS_P2;Temp;Humidity;BMP_temperature;BMP_pressure;BME280_temperature;BME280_humidity;BME280_pressure;Samples;Min_cycle;Max_cycle;Signal;HPM_P1;HPM_P2
2023/05/21 00:01:09;;;;;;;16.20;6.70;;;12.90;99.90;;;;;;5014194;28;20032;-75
2023/05/21 00:03:35;;;;;;;13.85;6.82;;;12.90;99.90;;;;;;5013401;28;20032;-73
2023/05/21 00:06:02;;;;;;;12.88;6.57;;;12.90;99.90;;;;;;5014451;28;20030;-73
2023/05/21 00:08:27;;;;;;;16.00;7.20;;;12.90;99.90;;;;;;5019732;28;20084;-72
2023/05/21 00:10:53;;;;;;;15.30;6.25;;;12.90;99.90;;;;;;5033781;28;20029;-72
2023/05/21 00:13:19;;;;;;;17.48;7.70;;;12.80;99.90;;;;;;5019947;28;20583;-73
2023/05/21 00:15:44;;;;;;;15.95;7.55;;;12.80;99.90;;;;;;5013897;28;20537;-73
2023/05/21 00:18:10;;;;;;;16.50;6.95;;;12.80;99.90;;;;;;5046596;28;20044;-72
2023/05/21 00:20:36;;;;;;;18.63;7.82;;;12.80;99.90;;;;;;5033355;28;20496;-75
2023/05/21 00:23:02;;;;;;;15.30;6.70;;;12.80;99.90;;;;;;5032014;28;20037;-72
2023/05/21 00:25:28;;;;;;;15.15;7.03;;;12.80;99.90;;;;;;5006690;28;20023;-72
2023/05/21 00:27:54;;;;;;;16.00;6.85;;;12.90;99.90;;;;;;5005439;28;20018;-74
2023/05/21 00:30:20;;;;;;;14.98;6.68;;;12.90;99.90;;;;;;5008138;28;20470;-72
2023/05/21 00:32:46;;;;;;;16.80;7.30;;;12.90;99.90;;;;;;5002824;28;20092;-72
2023/05/21 00:35:12;;;;;;;15.32;6.38;;;13.00;99.90;;;;;;5005310;28;20032;-73
2023/05/21 00:37:38;;;;;;;16.92;7.07;;;13.10;99.90;;;;;;5003667;28;20029;-74
2023/05/21 00:40:06;;;;;;;14.77;7.05;;;13.10;99.90;;;;;;5002397;28;20125;-72
2023/05/21 00:42:32;;;;;;;14.35;7.43;;;13.10;99.90;;;;;;5001764;28;20030;-72
2023/05/21 00:44:58;;;;;;;17.02;7.45;;;13.20;99.90;;;;;;5005935;28;20030;-74
2023/05/21 00:47:25;;;;;;;15.48;7.20;;;13.30;99.90;;;;;;5000875;28;20022;-73
2023/05/21 00:49:52;;;;;;;12.95;6.47;;;13.30;99.90;;;;;;5001656;28;20019;-72
2023/05/21 00:52:19;;;;;;;15.27;7.45;;;13.40;99.90;;;;;;5003092;28;20025;-73
2023/05/21 00:54:47;;;;;;;14.68;6.38;;;13.40;99.90;;;;;;5002789;28;20106;-73
2023/05/21 00:57:13;;;;;;;14.90;6.55;;;13.40;99.90;;;;;;5017862;28;20026;-74
2023/05/21 00:59:38;;;;;;;15.20;7.88;;;13.50;99.90;;;;;;5001691;28;20108;-76
2023/05/21 01:02:05;;;;;;;12.93;5.82;;;13.50;99.90;;;;;;5002435;28;20026;-73
2023/05/21 01:04:31;;;;;;;15.32;6.80;;;13.60;99.90;;;;;;5003558;28;20029;-74
2023/05/21 01:06:57;;;;;;;13.23;6.53;;;13.60;99.90;;;;;;5002772;28;20030;-73
2023/05/21 01:09:25;;;;;;;12.48;6.10;;;13.70;99.90;;;;;;5002761;28;20025;-75
2023/05/21 01:11:51;;;;;;;15.43;6.70;;;13.70;99.90;;;;;;5002716;28;20417;-73
2023/05/21 01:14:18;;;;;;;12.43;5.80;;;13.70;99.90;;;;;;5002847;28;20021;-74
2023/05/21 01:16:47;;;;;;;14.25;6.88;;;13.70;99.90;;;;;;5005416;28;20030;-74
2023/05/21 01:19:15;;;;;;;14.88;6.80;;;13.80;99.90;;;;;;5022106;28;20466;-72
2023/05/21 01:21:45;;;;;;;13.60;6.38;;;13.80;99.90;;;;;;5021591;28;20031;-73
2023/05/21 01:24:10;;;;;;;12.52;6.53;;;13.80;99.90;;;;;;5008745;28;20379;-73
2023/05/21 01:26:37;;;;;;;13.35;6.13;;;13.80;99.90;;;;;;5010444;28;20033;-76
2023/05/21 01:29:11;;;;;;;16.52;6.68;;;13.90;99.90;;;;;;5027848;28;20112;-76
2023/05/21 01:31:41;;;;;;;12.80;6.43;;;13.90;99.90;;;;;;5016074;28;20444;-76
2023/05/21 01:34:09;;;;;;;14.13;6.75;;;13.90;99.90;;;;;;5012445;28;20521;-73
2023/05/21 01:36:42;;;;;;;14.77;6.53;;;14.00;99.90;;;;;;5011225;28;20022;-73
2023/05/21 01:39:36;;;;;;;12.98;7.03;;;14.00;99.90;;;;;;5011253;28;20092;-76
2023/05/21 01:42:04;;;;;;;12.85;6.05;;;14.00;99.90;;;;;;5002955;28;20042;-72
2023/05/21 01:44:32;;;;;;;13.27;6.88;;;14.10;99.90;;;;;;5010282;28;20031;-73
2023/05/21 01:47:02;;;;;;;12.30;6.30;;;14.10;99.90;;;;;;5008561;28;20022;-73
2023/05/21 01:49:29;;;;;;;14.18;6.93;;;14.10;99.90;;;;;;5003264;28;20030;-73
2023/05/21 01:51:55;;;;;;;12.70;6.50;;;14.10;99.90;;;;;;5013798;28;20991;-73
2023/05/21 01:54:20;;;;;;;16.05;6.72;;;14.10;99.90;;;;;;5012802;28;20518;-73
2023/05/21 01:56:50;;;;;;;16.90;6.90;;;14.10;99.90;;;;;;5014195;28;20398;-73
2023/05/21 01:59:16;;;;;;;13.98;6.57;;;14.20;99.90;;;;;;5015466;28;20129;-73
2023/05/21 02:01:42;;;;;;;13.38;6.30;;;14.20;99.90;;;;;;5011447;28;20041;-73
2023/05/21 02:04:07;;;;;;;15.40;7.35;;;14.20;99.90;;;;;;5002278;28;20106;-73
2023/05/21 02:06:34;;;;;;;11.82;6.13;;;14.30;99.90;;;;;;5011400;28;20057;-73
2023/05/21 02:09:01;;;;;;;13.68;7.10;;;14.30;99.90;;;;;;5010492;28;20060;-72
2023/05/21 02:11:27;;;;;;;15.55;6.85;;;14.30;99.90;;;;;;5006151;28;20038;-73
2023/05/21 02:13:53;;;;;;;17.92;6.60;;;14.30;99.90;;;;;;5009977;28;20120;-75
2023/05/21 02:16:21;;;;;;;12.85;6.40;;;14.40;99.90;;;;;;5011327;28;20463;-73
2023/05/21 02:18:50;;;;;;;14.80;6.88;;;14.40;99.90;;;;;;5010907;28;20021;-74
2023/05/21 02:21:16;;;;;;;12.55;6.00;;;14.40;99.90;;;;;;5005050;28;20022;-73
2023/05/21 02:23:41;;;;;;;14.30;5.97;;;14.50;99.90;;;;;;5006921;28;20390;-74
2023/05/21 02:26:07;;;;;;;12.50;6.20;;;14.40;99.90;;;;;;5007681;28;20063;-72
2023/05/21 02:28:33;;;;;;;13.98;7.07;;;14.50;99.90;;;;;;5008523;28;20087;-73
2023/05/21 02:31:00;;;;;;;12.40;7.05;;;14.50;99.90;;;;;;5007417;28;20030;-73
2023/05/21 02:33:25;;;;;;;16.02;6.63;;;14.50;99.90;;;;;;5005606;28;20045;-75
2023/05/21 02:35:51;;;;;;;12.07;6.25;;;14.50;99.90;;;;;;5005676;28;20026;-74
2023/05/21 02:38:18;;;;;;;14.70;7.05;;;14.50;99.90;;;;;;5009845;28;21450;-75
2023/05/21 02:40:44;;;;;;;12.98;6.63;;;14.50;99.90;;;;;;5007376;28;20095;-73
2023/05/21 02:43:10;;;;;;;11.82;6.25;;;14.50;99.90;;;;;;5006366;28;20034;-77
2023/05/21 02:45:36;;;;;;;12.27;5.57;;;14.60;99.90;;;;;;5011909;28;20411;-74
2023/05/21 02:48:01;;;;;;;10.60;5.93;;;14.60;99.90;;;;;;5011074;28;20034;-73
2023/05/21 02:50:27;;;;;;;15.48;7.32;;;14.60;99.90;;;;;;5027534;28;20112;-73
2023/05/21 02:52:52;;;;;;;12.68;6.72;;;14.60;99.90;;;;;;5019238;28;20030;-73
2023/05/21 02:55:18;;;;;;;15.13;7.28;;;14.60;99.90;;;;;;5020849;28;20477;-74
2023/05/21 02:57:44;;;;;;;13.60;7.38;;;14.60;99.90;;;;;;5026731;28;20095;-72
2023/05/21 03:00:10;;;;;;;14.10;6.50;;;14.60;99.90;;;;;;5015190;28;20028;-73
2023/05/21 03:02:35;;;;;;;12.48;6.53;;;14.60;99.90;;;;;;5041435;28;20034;-72
2023/05/21 03:05:01;;;;;;;12.02;5.88;;;14.60;99.90;;;;;;5011546;28;20434;-72
2023/05/21 03:07:27;;;;;;;11.70;6.15;;;14.60;99.90;;;;;;5023992;28;20033;-74
2023/05/21 03:09:52;;;;;;;12.65;6.75;;;14.60;99.90;;;;;;5030407;28;20518;-73
2023/05/21 03:12:18;;;;;;;12.40;6.20;;;14.70;99.90;;;;;;5027925;28;20038;-73
2023/05/21 03:14:45;;;;;;;13.10;6.93;;;14.70;99.90;;;;;;5018105;28;20100;-78
2023/05/21 03:17:12;;;;;;;13.73;6.95;;;14.70;99.90;;;;;;5020287;28;20030;-77
2023/05/21 03:19:40;;;;;;;11.75;6.22;;;14.70;99.90;;;;;;5025560;28;20018;-72
2023/05/21 03:22:06;;;;;;;13.75;6.57;;;14.70;99.90;;;;;;5014691;28;20671;-73
2023/05/21 03:24:31;;;;;;;11.00;6.00;;;14.70;99.90;;;;;;5029844;28;20059;-72
2023/05/21 03:26:59;;;;;;;14.18;6.07;;;14.80;99.90;;;;;;5023664;28;20025;-76
2023/05/21 03:29:26;;;;;;;14.10;6.53;;;14.80;99.90;;;;;;5023095;28;20476;-75
2023/05/21 03:31:52;;;;;;;12.75;7.32;;;14.80;99.90;;;;;;5030628;28;20033;-71
2023/05/21 03:34:22;;;;;;;12.00;6.53;;;14.80;99.90;;;;;;5033862;28;20386;-74
2023/05/21 03:36:47;;;;;;;12.15;5.68;;;14.80;99.90;;;;;;5027573;28;20021;-73
2023/05/21 03:39:13;;;;;;;13.77;6.95;;;14.80;99.90;;;;;;5024494;28;20391;-73
2023/05/21 03:41:39;;;;;;;11.90;6.40;;;14.80;99.90;;;;;;5028814;28;20458;-73
2023/05/21 03:44:04;;;;;;;11.45;6.32;;;14.80;99.90;;;;;;5018629;28;20030;-73
2023/05/21 03:46:30;;;;;;;11.38;6.45;;;14.80;99.90;;;;;;5030066;28;20422;-72
2023/05/21 03:48:57;;;;;;;10.23;5.97;;;14.80;99.90;;;;;;5022985;28;20231;-72
2023/05/21 03:51:23;;;;;;;14.02;6.95;;;14.90;99.90;;;;;;5022709;28;20121;-73
2023/05/21 03:53:49;;;;;;;12.02;6.18;;;14.80;99.90;;;;;;5029925;28;20034;-75
2023/05/21 03:56:15;;;;;;;11.40;5.75;;;14.90;99.90;;;;;;5017909;28;20080;-72
2023/05/21 03:58:41;;;;;;;13.07;6.65;;;14.90;99.90;;;;;;5028473;28;20382;-72
2023/05/21 04:01:07;;;;;;;13.15;5.72;;;14.80;99.90;;;;;;5024143;28;20049;-74
2023/05/21 04:03:34;;;;;;;12.93;6.00;;;14.90;99.90;;;;;;5021239;28;20018;-72
2023/05/21 04:06:00;;;;;;;10.77;6.13;;;14.90;99.90;;;;;;5031007;28;20026;-72
2023/05/21 04:08:26;;;;;;;12.80;5.93;;;14.80;99.90;;;;;;5018675;28;20509;-74
2023/05/21 04:10:51;;;;;;;11.77;6.32;;;14.80;99.90;;;;;;5027168;28;20022;-73
2023/05/21 04:13:17;;;;;;;10.43;5.70;;;14.80;99.90;;;;;;5025449;28;20084;-73
2023/05/21 04:15:45;;;;;;;13.27;6.18;;;14.80;99.90;;;;;;5019981;28;20037;-73
2023/05/21 04:18:12;;;;;;;11.20;6.43;;;14.80;99.90;;;;;;5030874;28;20022;-75
2023/05/21 04:20:38;;;;;;;12.10;6.63;;;14.80;99.90;;;;;;5019657;28;20083;-73
2023/05/21 04:23:03;;;;;;;10.75;5.78;;;14.80;99.90;;;;;;5024853;28;20033;-73
2023/05/21 04:25:29;;;;;;;10.30;5.80;;;14.90;99.90;;;;;;5026751;28;20036;-73
2023/05/21 04:27:55;;;;;;;12.00;6.43;;;14.90;99.90;;;;;;5017977;28;20378;-74
2023/05/21 04:30:20;;;;;;;11.70;6.35;;;14.80;99.90;;;;;;5045800;28;20374;-77
2023/05/21 04:32:46;;;;;;;10.57;6.30;;;14.80;99.90;;;;;;5020419;28;20029;-73
2023/05/21 04:35:14;;;;;;;13.55;6.32;;;14.90;99.90;;;;;;5022398;28;20026;-73
2023/05/21 04:37:40;;;;;;;11.32;5.78;;;14.90;99.90;;;;;;5028006;28;20108;-73
2023/05/21 04:40:08;;;;;;;11.70;6.68;;;14.90;99.90;;;;;;5016918;28;20057;-73
2023/05/21 04:42:34;;;;;;;11.02;6.30;;;14.90;99.90;;;;;;5028797;28;20025;-76
2023/05/21 04:45:00;;;;;;;13.77;7.07;;;14.90;99.90;;;;;;5021992;28;20188;-73
2023/05/21 04:47:28;;;;;;;11.55;6.05;;;14.90;99.90;;;;;;5021384;28;20486;-73
2023/05/21 04:49:54;;;;;;;10.55;5.57;;;15.00;99.90;;;;;;5029254;28;20079;-73
2023/05/21 04:52:20;;;;;;;11.30;6.53;;;15.00;99.90;;;;;;5016748;28;20033;-73
2023/05/21 04:54:46;;;;;;;11.52;5.75;;;15.00;99.90;;;;;;5026398;28;20105;-73
2023/05/21 04:57:12;;;;;;;10.98;5.72;;;15.00;99.90;;;;;;5017974;28;20052;-73
2023/05/21 04:59:38;;;;;;;11.57;6.00;;;15.00;99.90;;;;;;5013506;28;20026;-75
2023/05/21 05:02:04;;;;;;;12.30;6.53;;;15.00;99.90;;;;;;5029407;28;20056;-73
2023/05/21 05:04:30;;;;;;;11.55;5.70;;;15.00;99.90;;;;;;5017514;28;20028;-73
2023/05/21 05:06:56;;;;;;;11.65;5.63;;;15.10;99.90;;;;;;5024594;28;20061;-73
2023/05/21 05:09:23;;;;;;;9.95;5.80;;;15.10;99.90;;;;;;5024662;28;20056;-74
2023/05/21 05:11:49;;;;;;;11.75;5.32;;;15.10;99.90;;;;;;5033008;28;20018;-73
2023/05/21 05:14:15;;;;;;;11.25;5.90;;;15.10;99.90;;;;;;5027537;28;20037;-73
2023/05/21 05:16:41;;;;;;;10.88;5.20;;;15.10;99.90;;;;;;5019303;28;20018;-73
2023/05/21 05:19:07;;;;;;;11.13;6.43;;;15.10;99.90;;;;;;5038604;28;20030;-73
2023/05/21 05:21:33;;;;;;;11.27;5.60;;;15.20;99.90;;;;;;5041308;28;20033;-72
2023/05/21 05:23:59;;;;;;;10.75;5.43;;;15.20;99.90;;;;;;5015636;28;20038;-72
2023/05/21 05:26:25;;;;;;;11.75;5.55;;;15.30;99.90;;;;;;5028842;28;20028;-76
2023/05/21 05:28:51;;;;;;;11.38;5.57;;;15.30;99.90;;;;;;5020190;28;20064;-75
2023/05/21 05:31:16;;;;;;;12.13;5.47;;;15.40;99.90;;;;;;5021546;28;20029;-73
2023/05/21 05:33:42;;;;;;;11.45;6.15;;;15.50;99.90;;;;;;5027013;28;20033;-74
2023/05/21 05:36:07;;;;;;;9.55;5.35;;;15.60;99.90;;;;;;5016381;28;20029;-73
2023/05/21 05:38:33;;;;;;;11.23;5.55;;;15.70;99.90;;;;;;5027917;28;20029;-73
2023/05/21 05:40:59;;;;;;;12.73;6.22;;;15.80;99.90;;;;;;5019797;28;20139;-73
2023/05/21 05:43:25;;;;;;;10.63;5.53;;;15.90;99.90;;;;;;5020361;28;20471;-72
2023/05/21 05:45:51;;;;;;;10.95;5.20;;;16.00;99.90;;;;;;5028021;28;20037;-72
2023/05/21 05:48:16;;;;;;;9.77;5.78;;;16.10;99.90;;;;;;5015617;28;20465;-73
2023/05/21 05:50:44;;;;;;;9.45;5.07;;;16.20;99.90;;;;;;5026218;28;20133;-72
2023/05/21 05:53:12;;;;;;;9.80;5.03;;;16.30;99.90;;;;;;5022638;28;20077;-75
2023/05/21 05:55:38;;;;;;;9.27;5.03;;;16.40;99.90;;;;;;5018623;28;20088;-73
2023/05/21 05:58:03;;;;;;;8.90;4.95;;;16.70;99.90;;;;;;5028988;28;20026;-73
2023/05/21 06:00:29;;;;;;;9.05;4.80;;;17.10;99.90;;;;;;5016543;28;20036;-76
2023/05/21 06:02:54;;;;;;;6.40;4.32;;;17.40;99.90;;;;;;5024355;28;20018;-73
2023/05/21 06:05:20;;;;;;;7.40;3.95;;;17.80;99.90;;;;;;5023392;28;20107;-73
2023/05/21 06:07:45;;;;;;;8.93;5.10;;;18.20;99.90;;;;;;5017140;28;20092;-73
2023/05/21 06:10:11;;;;;;;6.60;4.00;;;18.50;99.90;;;;;;5029080;28;20095;-73
2023/05/21 06:12:36;;;;;;;9.45;4.50;;;19.00;99.90;;;;;;5017659;28;20033;-73
2023/05/21 06:15:02;;;;;;;7.15;4.45;;;19.00;99.90;;;;;;5023326;28;20030;-73
2023/05/21 06:17:28;;;;;;;8.60;4.53;;;19.20;99.90;;;;;;5024775;28;20025;-74
2023/05/21 06:19:55;;;;;;;7.93;4.20;;;19.40;99.90;;;;;;5016473;28;20022;-75
2023/05/21 06:22:20;;;;;;;6.53;3.88;;;19.80;99.90;;;;;;5030879;28;20385;-72
2023/05/21 06:24:46;;;;;;;10.10;4.63;;;20.30;99.90;;;;;;5025600;28;20030;-73
2023/05/21 06:27:12;;;;;;;7.22;3.60;;;20.60;99.90;;;;;;5022730;28;20031;-75
2023/05/21 06:29:39;;;;;;;7.25;4.05;;;20.70;99.90;;;;;;5018697;28;20040;-77
2023/05/21 06:32:06;;;;;;;6.38;3.58;;;20.50;99.90;;;;;;5028747;28;20022;-74
2023/05/21 06:34:31;;;;;;;7.93;4.05;;;20.30;99.90;;;;;;5005027;28;20041;-72
2023/05/21 06:36:57;;;;;;;6.72;4.07;;;20.10;99.90;;;;;;5012240;28;20033;-73
2023/05/21 06:39:23;;;;;;;10.10;4.05;;;20.10;99.90;;;;;;5012273;28;20145;-73
2023/05/21 06:41:49;;;;;;;12.80;4.50;;;20.40;99.90;;;;;;5024358;28;20112;-74
2023/05/21 06:44:15;;;;;;;8.27;4.30;;;20.80;99.90;;;;;;5031856;28;20108;-75
2023/05/21 06:46:41;;;;;;;9.48;4.35;;;21.00;99.90;;;;;;5032072;28;20377;-74
2023/05/21 06:49:07;;;;;;;9.75;4.30;;;21.10;99.90;;;;;;5014167;28;20041;-73
2023/05/21 06:51:32;;;;;;;8.82;4.38;;;21.00;99.90;;;;;;5027456;28;20032;-74
2023/05/21 06:53:58;;;;;;;9.93;4.60;;;20.80;99.90;;;;;;5011635;28;20038;-73
2023/05/21 06:56:24;;;;;;;8.00;4.22;;;20.40;99.90;;;;;;5011848;28;20540;-72
2023/05/21 06:58:49;;;;;;;8.88;4.88;;;20.00;99.90;;;;;;5013938;28;20022;-74
2023/05/21 07:01:15;;;;;;;9.43;5.03;;;19.70;99.90;;;;;;5015670;28;20056;-72
2023/05/21 07:03:40;;;;;;;10.88;4.65;;;19.40;99.90;;;;;;5016201;28;20146;-73
2023/05/21 07:06:06;;;;;;;10.13;4.60;;;19.20;99.90;;;;;;5015407;28;20029;-73
2023/05/21 07:08:32;;;;;;;9.65;4.72;;;19.10;99.90;;;;;;5015338;28;20030;-73
2023/05/21 07:10:57;;;;;;;11.27;4.82;;;19.00;99.90;;;;;;5015615;28;20030;-76
2023/05/21 07:13:23;;;;;;;9.60;4.63;;;19.00;99.90;;;;;;5015611;28;20034;-76
2023/05/21 07:15:49;;;;;;;12.02;5.57;;;19.10;99.90;;;;;;5015110;28;20021;-73
2023/05/21 07:18:15;;;;;;;8.50;4.32;;;19.10;99.90;;;;;;5016064;28;20524;-73
2023/05/21 07:20:41;;;;;;;16.33;5.57;;;19.10;99.90;;;;;;5015054;28;20033;-73
2023/05/21 07:23:06;;;;;;;11.10;4.47;;;19.10;99.90;;;;;;5015875;28;20041;-74
2023/05/21 07:25:32;;;;;;;11.82;5.35;;;19.20;99.90;;;;;;5015484;28;20050;-74
2023/05/21 07:27:57;;;;;;;11.00;5.05;;;19.20;99.90;;;;;;5015644;28;20132;-75
2023/05/21 07:30:23;;;;;;;10.93;5.18;;;19.30;99.90;;;;;;5015272;28;20044;-72
2023/05/21 07:32:48;;;;;;;11.50;5.28;;;19.50;99.90;;;;;;5015836;28;20041;-77
2023/05/21 07:35:14;;;;;;;14.07;5.28;;;19.80;99.90;;;;;;5015515;28;20059;-74
2023/05/21 07:37:40;;;;;;;11.68;5.53;;;20.10;99.90;;;;;;5017823;28;20108;-73
2023/05/21 07:40:06;;;;;;;8.15;4.82;;;20.40;99.90;;;;;;5030591;28;20056;-72
2023/05/21 07:42:32;;;;;;;12.85;5.57;;;20.50;99.90;;;;;;5034774;28;20148;-73
2023/05/21 07:44:58;;;;;;;9.98;4.85;;;20.50;99.90;;;;;;5022481;28;20062;-75
2023/05/21 07:47:24;;;;;;;13.85;4.95;;;20.40;99.90;;;;;;5015341;28;20458;-74
2023/05/21 07:49:49;;;;;;;10.52;4.97;;;20.30;99.90;;;;;;5014974;28;20037;-73
2023/05/21 07:52:15;;;;;;;10.43;4.72;;;20.20;99.90;;;;;;5016282;28;20030;-76
2023/05/21 07:54:40;;;;;;;10.18;4.78;;;20.10;99.90;;;;;;5027493;28;20099;-73
2023/05/21 07:57:06;;;;;;;10.80;5.50;;;20.00;99.90;;;;;;5015592;28;20104;-74
2023/05/21 07:59:32;;;;;;;9.50;4.70;;;19.90;99.90;;;;;;5029509;28;20060;-73
2023/05/21 08:01:58;;;;;;;12.38;4.85;;;19.90;99.90;;;;;;5014919;28;20438;-77
2023/05/21 08:04:23;;;;;;;6.95;4.30;;;19.90;99.90;;;;;;5015022;28;20022;-73
2023/05/21 08:06:50;;;;;;;9.50;4.57;;;20.10;99.90;;;;;;5014789;28;20041;-72
2023/05/21 08:09:15;;;;;;;9.82;5.05;;;20.10;99.90;;;;;;5015245;28;20026;-74
2023/05/21 08:11:41;;;;;;;12.82;4.45;;;20.10;99.90;;;;;;5034099;28;20476;-73
2023/05/21 08:14:06;;;;;;;10.95;5.13;;;20.00;99.90;;;;;;5031415;28;20391;-77
2023/05/21 08:16:33;;;;;;;10.73;5.13;;;19.90;99.90;;;;;;5029965;28;20033;-75
2023/05/21 08:18:58;;;;;;;12.88;5.03;;;20.00;99.90;;;;;;5015289;28;20022;-73
2023/05/21 08:21:25;;;;;;;10.95;5.03;;;20.30;99.90;;;;;;5014583;28;20060;-75
2023/05/21 08:23:53;;;;;;;13.63;5.88;;;20.70;99.90;;;;;;5013992;28;20109;-77
2023/05/21 08:26:20;;;;;;;12.68;5.15;;;21.20;99.90;;;;;;4994993;28;20030;-74
2023/05/21 08:28:46;;;;;;;8.75;4.45;;;21.60;99.90;;;;;;5018440;28;20025;-74
2023/05/21 08:31:11;;;;;;;12.07;4.68;;;21.80;99.90;;;;;;5013120;28;20475;-77
2023/05/21 08:33:37;;;;;;;10.55;4.80;;;21.70;99.90;;;;;;5013800;28;20042;-75
2023/05/21 08:36:06;;;;;;;11.63;5.18;;;21.70;99.90;;;;;;5014469;28;20497;-75
2023/05/21 08:38:32;;;;;;;13.65;5.13;;;21.80;99.90;;;;;;5014165;28;20026;-74
2023/05/21 08:40:59;;;;;;;10.65;5.20;;;21.90;99.90;;;;;;5004420;28;20077;-74
2023/05/21 08:43:28;;;;;;;13.93;5.47;;;22.10;99.90;;;;;;4996996;28;20028;-75
2023/05/21 08:45:55;;;;;;;11.27;5.40;;;22.20;99.90;;;;;;5024364;28;20037;-74
2023/05/21 08:48:22;;;;;;;12.10;5.63;;;22.30;99.90;;;;;;5024395;28;20037;-74
2023/05/21 08:50:50;;;;;;;13.60;5.55;;;22.40;99.90;;;;;;5014108;28;20036;-75
2023/05/21 08:53:16;;;;;;;9.50;4.90;;;22.50;99.90;;;;;;5012541;28;20429;-73
2023/05/21 08:55:42;;;;;;;10.85;5.70;;;22.70;99.80;;;;;;5013757;28;20048;-72
2023/05/21 08:58:09;;;;;;;11.40;4.97;;;22.90;99.50;;;;;;5013933;28;20042;-76
2023/05/21 09:00:34;;;;;;;12.38;4.57;;;23.00;99.30;;;;;;5012590;28;20331;-74
2023/05/21 09:03:02;;;;;;;12.27;5.47;;;23.60;98.60;;;;;;5013165;28;20049;-75
2023/05/21 09:05:29;;;;;;;8.93;4.90;;;23.70;98.20;;;;;;5027306;28;20458;-73
2023/05/21 09:08:01;;;;;;;9.63;4.43;;;23.60;97.90;;;;;;5028575;28;20034;-73
2023/05/21 09:10:38;;;;;;;9.68;4.68;;;23.20;98.00;;;;;;5011722;28;20051;-77
2023/05/21 09:13:04;;;;;;;9.70;4.80;;;23.20;98.00;;;;;;5012786;28;20042;-73
2023/05/21 09:15:30;;;;;;;10.95;4.43;;;23.10;98.20;;;;;;5012875;28;20428;-75
2023/05/21 09:17:56;;;;;;;9.70;4.30;;;23.20;97.70;;;;;;5013225;28;20026;-74
2023/05/21 09:20:26;;;;;;;6.40;3.55;;;22.90;97.80;;;;;;5013254;28;20018;-74
2023/05/21 09:22:52;;;;;;;10.50;4.50;;;22.80;97.90;;;;;;5012671;28;20129;-73
2023/05/21 09:25:26;;;;;;;10.13;4.82;;;22.60;98.50;;;;;;5013196;28;20465;-75
2023/05/21 09:27:54;;;;;;;8.57;4.38;;;23.00;97.60;;;;;;5013212;28;20492;-71
2023/05/21 09:30:20;;;;;;;12.85;4.93;;;23.30;97.50;;;;;;5013445;28;20026;-76
2023/05/21 09:33:00;;;;;;;9.73;4.43;;;23.60;97.50;;;;;;5027575;28;20034;-76
2023/05/21 09:35:26;;;;;;;10.82;4.35;;;24.20;96.60;;;;;;5012427;28;20101;-74
2023/05/21 09:37:52;;;;;;;9.05;4.30;;;24.40;95.90;;;;;;5010911;28;20114;-74
2023/05/21 09:40:19;;;;;;;8.38;4.00;;;24.60;95.50;;;;;;5012680;28;20129;-74
2023/05/21 09:42:49;;;;;;;8.43;3.60;;;24.60;95.20;;;;;;5012922;28;20049;-72
2023/05/21 09:45:25;;;;;;;10.68;4.90;;;24.50;95.40;;;;;;5012350;28;20049;-74
2023/05/21 09:47:53;;;;;;;11.00;5.03;;;24.40;95.50;;;;;;5030636;28;20838;-72
2023/05/21 09:50:23;;;;;;;9.00;4.38;;;24.30;95.50;;;;;;5012334;28;20058;-73
2023/05/21 09:52:51;;;;;;;9.07;5.00;;;24.30;95.70;;;;;;5012903;28;20454;-72
2023/05/21 09:55:21;;;;;;;11.40;4.55;;;24.40;95.60;;;;;;5012877;28;20034;-73
2023/05/21 09:57:48;;;;;;;8.82;4.68;;;24.70;95.30;;;;;;5011507;28;20464;-74
2023/05/21 10:00:27;;;;;;;6.88;4.10;;;25.00;94.70;;;;;;5017715;28;20025;-75
2023/05/21 10:02:54;;;;;;;8.57;4.60;;;25.20;94.50;;;;;;5026001;28;20084;-76
2023/05/21 10:05:24;;;;;;;8.75;4.57;;;25.40;94.60;;;;;;5012459;28;20028;-72
2023/05/21 10:07:53;;;;;;;9.70;3.90;;;25.70;93.90;;;;;;5012751;28;20040;-74
2023/05/21 10:10:21;;;;;;;12.88;5.18;;;25.70;93.60;;;;;;5012294;28;20096;-72
2023/05/21 10:12:50;;;;;;;9.00;4.63;;;25.40;93.70;;;;;;5012185;28;20488;-71
2023/05/21 10:15:21;;;;;;;11.75;4.97;;;25.50;93.80;;;;;;5027653;28;20033;-75
2023/05/21 10:17:48;;;;;;;11.80;5.53;;;25.70;93.30;;;;;;5012666;28;20037;-76
2023/05/21 10:20:16;;;;;;;8.65;4.30;;;26.00;92.90;;;;;;5012411;28;20494;-73
2023/05/21 10:22:43;;;;;;;7.60;4.68;;;26.30;92.50;;;;;;5012383;28;20034;-73
2023/05/21 10:25:09;;;;;;;9.98;4.97;;;26.40;92.50;;;;;;5012021;28;20037;-74
2023/05/21 10:27:36;;;;;;;9.48;5.03;;;26.50;92.50;;;;;;5012228;28;20046;-74
2023/05/21 10:30:06;;;;;;;9.18;4.57;;;26.40;92.50;;;;;;5012482;28;20076;-73
2023/05/21 10:32:32;;;;;;;11.75;5.03;;;26.30;92.50;;;;;;5022141;28;20037;-75
2023/05/21 10:34:58;;;;;;;8.30;4.40;;;26.10;92.70;;;;;;5036019;28;20040;-76
2023/05/21 10:37:28;;;;;;;13.05;5.53;;;26.10;92.80;;;;;;5051154;28;20036;-73
2023/05/21 10:39:54;;;;;;;10.77;4.43;;;26.40;92.70;;;;;;5035859;28;20091;-73
2023/05/21 10:42:26;;;;;;;9.05;4.95;;;26.80;91.70;;;;;;5032382;28;20029;-73
2023/05/21 10:45:21;;;;;;;9.38;4.80;;;27.10;91.80;;;;;;5023885;28;20056;-78
2023/05/21 10:48:19;;;;;;;7.95;4.38;;;27.10;91.40;;;;;;5007447;28;20057;-72
2023/05/21 10:51:00;;;;;;;10.90;4.80;;;27.30;91.00;;;;;;5031097;28;20053;-73
2023/05/21 10:54:05;;;;;;;7.75;4.57;;;27.10;90.70;;;;;;5011899;28;20046;-72
2023/05/21 10:56:45;;;;;;;11.45;4.72;;;27.00;91.00;;;;;;5014647;28;20026;-73
2023/05/21 10:59:44;;;;;;;9.38;4.50;;;27.30;90.80;;;;;;5016095;28;20429;-73
2023/05/21 11:02:13;;;;;;;8.55;4.40;;;27.60;90.20;;;;;;5023368;28;20028;-73
2023/05/21 11:04:43;;;;;;;9.55;3.75;;;27.70;90.10;;;;;;5035273;28;20037;-73
2023/05/21 11:07:11;;;;;;;8.50;4.28;;;28.00;89.80;;;;;;5025459;28;20029;-74
2023/05/21 11:09:37;;;;;;;9.60;4.85;;;28.30;89.40;;;;;;5015167;28;20025;-73
2023/05/21 11:12:03;;;;;;;10.70;4.32;;;28.10;89.60;;;;;;5015343;28;20041;-73
2023/05/21 11:14:41;;;;;;;8.63;4.22;;;28.20;89.50;;;;;;5015337;28;20395;-75
2023/05/21 11:17:07;;;;;;;6.63;3.95;;;28.60;89.00;;;;;;5015161;28;20041;-73
2023/05/21 11:19:50;;;;;;;10.48;4.30;;;29.10;88.80;;;;;;5015523;28;20037;-76
2023/05/21 11:22:26;;;;;;;9.10;4.22;;;29.20;88.10;;;;;;5015624;28;20113;-72
2023/05/21 11:24:53;;;;;;;7.03;4.03;;;29.20;87.50;;;;;;5015364;28;20022;-74
2023/05/21 11:27:29;;;;;;;9.27;4.63;;;29.10;86.80;;;;;;5014964;28;20033;-73
2023/05/21 11:29:55;;;;;;;9.93;4.40;;;29.10;86.90;;;;;;5015052;28;20036;-71
2023/05/21 11:32:22;;;;;;;9.15;4.05;;;29.20;85.80;;;;;;5012709;28;20026;-74
2023/05/21 11:34:49;;;;;;;7.78;4.22;;;29.20;86.20;;;;;;5010329;28;20030;-72
2023/05/21 11:37:17;;;;;;;7.20;4.38;;;29.40;86.10;;;;;;5015673;28;20030;-75
2023/05/21 11:39:44;;;;;;;5.88;3.63;;;29.70;85.80;;;;;;5014351;28;20397;-72
2023/05/21 11:42:09;;;;;;;7.55;3.70;;;29.60;85.10;;;;;;5014094;28;20429;-73
2023/05/21 11:44:47;;;;;;;7.50;4.18;;;29.30;85.70;;;;;;5014047;28;20029;-72
2023/05/21 11:47:17;;;;;;;11.88;4.65;;;29.20;85.80;;;;;;5015533;28;20041;-72
2023/05/21 11:49:44;;;;;;;8.88;3.85;;;29.30;85.80;;;;;;5011448;28;20108;-72
2023/05/21 11:52:11;;;;;;;11.27;4.57;;;29.70;84.40;;;;;;5007406;28;20496;-72
2023/05/21 11:54:50;;;;;;;7.93;4.57;;;29.30;84.30;;;;;;5014658;28;20545;-72
2023/05/21 11:57:19;;;;;;;8.45;4.40;;;29.00;85.10;;;;;;5014923;28;20152;-72
2023/05/21 11:59:46;;;;;;;8.20;4.13;;;29.20;85.60;;;;;;5014684;28;20026;-73
2023/05/21 12:02:16;;;;;;;6.45;3.95;;;29.40;85.00;;;;;;5014571;28;20048;-72
2023/05/21 12:04:43;;;;;;;10.40;4.00;;;29.20;84.70;;;;;;5011253;28;20026;-75
2023/05/21 12:07:19;;;;;;;7.13;3.80;;;28.50;85.70;;;;;;5013417;28;20026;-74
2023/05/21 12:09:47;;;;;;;9.27;3.97;;;27.90;86.40;;;;;;5009977;28;20027;-71
2023/05/21 12:12:18;;;;;;;9.40;4.25;;;27.80;86.60;;;;;;5014511;28;20807;-72
2023/05/21 12:14:49;;;;;;;9.45;4.30;;;28.20;86.40;;;;;;5014025;28;20387;-73
2023/05/21 12:17:20;;;;;;;8.25;4.80;;;28.60;84.50;;;;;;5014630;28;20103;-71
2023/05/21 12:19:47;;;;;;;5.65;3.58;;;28.30;84.80;;;;;;5013558;28;20056;-72
2023/05/21 12:22:15;;;;;;;6.63;4.30;;;28.00;85.00;;;;;;5013653;28;20485;-73
2023/05/21 12:24:43;;;;;;;12.35;4.72;;;27.90;86.10;;;;;;5008527;28;20026;-74
2023/05/21 12:27:11;;;;;;;7.13;4.22;;;28.30;85.50;;;;;;5003320;28;20033;-73
2023/05/21 12:29:41;;;;;;;7.25;4.53;;;28.90;84.00;;;;;;5013916;28;20178;-73
2023/05/21 12:32:11;;;;;;;11.93;4.78;;;28.80;83.50;;;;;;5011254;28;20382;-73
2023/05/21 12:34:45;;;;;;;10.38;4.43;;;28.50;84.30;;;;;;5011778;28;20027;-73
2023/05/21 12:37:18;;;;;;;8.98;4.68;;;28.30;84.20;;;;;;5012242;28;20033;-75
2023/05/21 12:39:45;;;;;;;10.68;4.93;;;28.30;84.60;;;;;;5013636;28;20050;-72
2023/05/21 12:42:11;;;;;;;14.07;6.30;;;28.30;84.60;;;;;;5003405;28;20081;-72